sensor_id;sensor_type;location;lat;lon;timestamp;temperature;humidity
42907;DHT22;28552;51.146;6.576;2023-07-20T00:02:12;16.40;99.90
42907;DHT22;28552;51.146;6.576;2023-07-20T00:05:13;16.50;99.90
42907;DHT22;28552;51.146;6.576;2023-07-20T00:08:13;16.50;99.90
42907;DHT22;28552;51.146;6.576;2023-07-20T00:11:14;16.50;99.90
42907;DHT22;28552;51.146;6.576;2023-07-20T00:14:14;16.50;99.90
42907;DHT22;28552;51.146;6.576;2023-07-20T00:17:15;16.50;99.90
42907;DHT22;28552;51.146;6.576;2023-07-20T00:20:16;16.60;99.90
42907;DHT22;28552;51.146;6.576;2023-07-20T00:23:16;16.60;99.90
42907;DHT22;28552;51.146;6.576;2023-07-20T00:26:17;16.60;99.90
42907;DHT22;28552;51.146;6.576;2023-07-20T00:29:18;16.50;99.90
42907;DHT22;28552;51.146;6.576;2023-07-20T00:32:18;16.50;99.90
42907;DHT22;28552;51.146;6.576;2023-07-20T00:35:19;16.50;99.90
42907;DHT22;28552;51.146;6.576;2023-07-20T00:38:20;16.50;99.90
42907;DHT22;28552;51.146;6.576;2023-07-20T00:41:21;16.40;99.90
42907;DHT22;28552;51.146;6.576;2023-07-20T00:44:21;16.40;99.90
42907;DHT22;28552;51.146;6.576;2023-07-20T00:47:22;16.40;99.90
42907;DHT22;28552;51.146;6.576;2023-07-20T00:50:25;16.40;99.90
42907;DHT22;28552;51.146;6.576;2023-07-20T00:53:26;16.50;99.90
42907;DHT22;28552;51.146;6.576;2023-07-20T00:56:27;16.50;99.90
42907;DHT22;28552;51.146;6.576;2023-07-20T00:59:27;16.50;99.90
42907;DHT22;28552;51.146;6.576;2023-07-20T01:02:28;16.60;99.90
42907;DHT22;28552;51.146;6.576;2023-07-20T01:05:38;16.50;99.90
42907;DHT22;28552;51.146;6.576;2023-07-20T01:09:00;16.50;99.90
42907;DHT22;28552;51.146;6.576;2023-07-20T01:12:18;16.50;99.90
42907;DHT22;28552;51.146;6.576;2023-07-20T01:15:20;16.50;99.90
42907;DHT22;28552;51.146;6.576;2023-07-20T01:18:21;16.50;99.90
42907;DHT22;28552;51.146;6.576;2023-07-20T01:21:29;16.50;99.90
42907;DHT22;28552;51.146;6.576;2023-07-20T01:24:53;16.50;99.90
42907;DHT22;28552;51.146;6.576;2023-07-20T01:28:09;16.50;99.90
42907;DHT22;28552;51.146;6.576;2023-07-20T01:34:24;16.50;99.90
42907;DHT22;28552;51.146;6.576;2023-07-20T01:37:27;16.40;99.90
42907;DHT22;28552;51.146;6.576;2023-07-20T01:40:30;16.40;99.90
42907;DHT22;28552;51.146;6.576;2023-07-20T01:43:31;16.40;99.90
42907;DHT22;28552;51.146;6.576;2023-07-20T01:46:31;16.30;99.90
42907;DHT22;28552;51.146;6.576;2023-07-20T01:49:32;16.30;99.90
42907;DHT22;28552;51.146;6.576;2023-07-20T01:52:32;16.30;99.90
42907;DHT22;28552;51.146;6.576;2023-07-20T01:55:33;16.20;99.90
42907;DHT22;28552;51.146;6.576;2023-07-20T01:58:34;16.10;99.90
42907;DHT22;28552;51.146;6.576;2023-07-20T02:01:34;16.10;99.90
42907;DHT22;28552;51.146;6.576;2023-07-20T02:04:35;16.00;99.90
42907;DHT22;28552;51.146;6.576;2023-07-20T02:07:36;15.90;99.90
42907;DHT22;28552;51.146;6.576;2023-07-20T02:10:36;15.90;99.90
42907;DHT22;28552;51.146;6.576;2023-07-20T02:13:37;15.90;99.90
42907;DHT22;28552;51.146;6.576;2023-07-20T02:16:37;15.80;99.90
42907;DHT22;28552;51.146;6.576;2023-07-20T02:19:38;15.80;99.90
42907;DHT22;28552;51.146;6.576;2023-07-20T02:22:39;15.70;99.90
42907;DHT22;28552;51.146;6.576;2023-07-20T02:25:40;15.70;99.90
42907;DHT22;28552;51.146;6.576;2023-07-20T02:28:41;15.70;99.90
42907;DHT22;28552;51.146;6.576;2023-07-20T02:31:41;15.70;99.90
42907;DHT22;28552;51.146;6.576;2023-07-20T02:34:43;15.80;99.90
42907;DHT22;28552;51.146;6.576;2023-07-20T02:37:43;15.70;99.90
42907;DHT22;28552;51.146;6.576;2023-07-20T02:40:44;15.70;99.90
42907;DHT22;28552;51.146;6.576;2023-07-20T02:43:45;15.70;99.90
42907;DHT22;28552;51.146;6.576;2023-07-20T02:46:45;15.70;99.90
42907;DHT22;28552;51.146;6.576;2023-07-20T02:49:46;15.70;99.90
42907;DHT22;28552;51.146;6.576;2023-07-20T02:52:46;15.70;99.90
42907;DHT22;28552;51.146;6.576;2023-07-20T02:55:47;15.60;99.90
42907;DHT22;28552;51.146;6.576;2023-07-20T02:58:48;15.60;99.90
42907;DHT22;28552;51.146;6.576;2023-07-20T03:01:48;15.60;99.90
42907;DHT22;28552;51.146;6.576;2023-07-20T03:04:49;15.60;99.90
42907;DHT22;28552;51.146;6.576;2023-07-20T03:07:49;15.60;99.90
42907;DHT22;28552;51.146;6.576;2023-07-20T03:10:50;15.60;99.90
42907;DHT22;28552;51.146;6.576;2023-07-20T03:13:51;15.60;99.90
42907;DHT22;28552;51.146;6.576;2023-07-20T03:16:51;15.60;99.90
42907;DHT22;28552;51.146;6.576;2023-07-20T03:19:52;15.50;99.90
42907;DHT22;28552;51.146;6.576;2023-07-20T03:22:52;15.50;99.90
42907;DHT22;28552;51.146;6.576;2023-07-20T03:25:53;15.50;99.90
42907;DHT22;28552;51.146;6.576;2023-07-20T03:28:55;15.40;99.90
42907;DHT22;28552;51.146;6.576;2023-07-20T03:31:55;15.40;99.90
42907;DHT22;28552;51.146;6.576;2023-07-20T03:34:56;15.40;99.90
42907;DHT22;28552;51.146;6.576;2023-07-20T03:37:56;15.30;99.90
42907;DHT22;28552;51.146;6.576;2023-07-20T03:40:59;15.30;99.90
42907;DHT22;28552;51.146;6.576;2023-07-20T03:44:00;15.30;99.90
42907;DHT22;28552;51.146;6.576;2023-07-20T03:47:00;15.30;99.90
42907;DHT22;28552;51.146;6.576;2023-07-20T03:50:01;15.30;99.90
42907;DHT22;28552;51.146;6.576;2023-07-20T03:53:01;15.30;99.90
42907;DHT22;28552;51.146;6.576;2023-07-20T03:56:02;15.30;99.90
42907;DHT22;28552;51.146;6.576;2023-07-20T03:59:03;15.30;99.90
42907;DHT22;28552;51.146;6.576;2023-07-20T04:02:04;15.30;99.90
42907;DHT22;28552;51.146;6.576;2023-07-20T04:05:06;15.30;99.90
42907;DHT22;28552;51.146;6.576;2023-07-20T04:08:07;15.40;99.90
42907;DHT22;28552;51.146;6.576;2023-07-20T04:11:07;15.40;99.90
42907;DHT22;28552;51.146;6.576;2023-07-20T04:14:08;15.40;99.90
42907;DHT22;28552;51.146;6.576;2023-07-20T04:17:08;15.30;99.90
42907;DHT22;28552;51.146;6.576;2023-07-20T04:20:12;15.40;99.90
42907;DHT22;28552;51.146;6.576;2023-07-20T04:23:13;15.40;99.90
42907;DHT22;28552;51.146;6.576;2023-07-20T04:26:13;15.40;99.90
42907;DHT22;28552;51.146;6.576;2023-07-20T04:29:15;15.50;99.90
42907;DHT22;28552;51.146;6.576;2023-07-20T04:32:15;15.50;99.90
42907;DHT22;28552;51.146;6.576;2023-07-20T04:35:45;15.50;99.90
42907;DHT22;28552;51.146;6.576;2023-07-20T04:38:39;15.60;99.90
42907;DHT22;28552;51.146;6.576;2023-07-20T04:41:39;15.60;99.90
42907;DHT22;28552;51.146;6.576;2023-07-20T04:44:40;15.60;99.90
42907;DHT22;28552;51.146;6.576;2023-07-20T04:47:40;15.60;99.90
42907;DHT22;28552;51.146;6.576;2023-07-20T04:50:42;15.60;99.90
42907;DHT22;28552;51.146;6.576;2023-07-20T04:53:43;15.70;99.90
42907;DHT22;28552;51.146;6.576;2023-07-20T04:56:43;15.70;99.90
42907;DHT22;28552;51.146;6.576;2023-07-20T04:59:44;15.70;99.90
42907;DHT22;28552;51.146;6.576;2023-07-20T05:02:44;15.80;99.90
42907;DHT22;28552;51.146;6.576;2023-07-20T05:05:46;15.80;99.90
42907;DHT22;28552;51.146;6.576;2023-07-20T05:08:47;15.80;99.90
42907;DHT22;28552;51.146;6.576;2023-07-20T05:11:48;15.90;99.90
42907;DHT22;28552;51.146;6.576;2023-07-20T05:14:49;15.90;99.90
42907;DHT22;28552;51.146;6.576;2023-07-20T05:17:49;15.90;99.90
42907;DHT22;28552;51.146;6.576;2023-07-20T05:20:50;16.00;99.90
42907;DHT22;28552;51.146;6.576;2023-07-20T05:23:51;16.10;99.90
42907;DHT22;28552;51.146;6.576;2023-07-20T05:26:52;16.10;99.90
42907;DHT22;28552;51.146;6.576;2023-07-20T05:29:52;16.10;99.90
42907;DHT22;28552;51.146;6.576;2023-07-20T05:32:53;16.20;99.90
42907;DHT22;28552;51.146;6.576;2023-07-20T05:35:54;16.20;99.90
42907;DHT22;28552;51.146;6.576;2023-07-20T05:38:55;16.20;99.90
42907;DHT22;28552;51.146;6.576;2023-07-20T05:41:55;16.30;99.90
42907;DHT22;28552;51.146;6.576;2023-07-20T05:44:56;16.40;99.90
42907;DHT22;28552;51.146;6.576;2023-07-20T05:47:57;16.40;99.90
42907;DHT22;28552;51.146;6.576;2023-07-20T05:50:57;16.50;99.90
42907;DHT22;28552;51.146;6.576;2023-07-20T05:53:58;16.60;99.90
42907;DHT22;28552;51.146;6.576;2023-07-20T05:56:58;16.60;99.90
42907;DHT22;28552;51.146;6.576;2023-07-20T05:59:59;16.60;99.90
42907;DHT22;28552;51.146;6.576;2023-07-20T06:02:59;16.70;99.90
42907;DHT22;28552;51.146;6.576;2023-07-20T06:06:00;16.70;99.90
42907;DHT22;28552;51.146;6.576;2023-07-20T06:09:02;16.70;99.90
42907;DHT22;28552;51.146;6.576;2023-07-20T06:12:05;16.60;99.90
42907;DHT22;28552;51.146;6.576;2023-07-20T06:15:06;16.70;99.90
42907;DHT22;28552;51.146;6.576;2023-07-20T06:18:07;16.80;99.90
42907;DHT22;28552;51.146;6.576;2023-07-20T06:21:07;16.70;99.90
42907;DHT22;28552;51.146;6.576;2023-07-20T06:24:08;16.80;99.90
42907;DHT22;28552;51.146;6.576;2023-07-20T06:27:08;17.00;99.90
42907;DHT22;28552;51.146;6.576;2023-07-20T06:30:09;17.00;99.90
42907;DHT22;28552;51.146;6.576;2023-07-20T06:33:10;17.00;99.90
42907;DHT22;28552;51.146;6.576;2023-07-20T06:36:11;17.10;99.90
42907;DHT22;28552;51.146;6.576;2023-07-20T06:39:11;17.30;99.90
42907;DHT22;28552;51.146;6.576;2023-07-20T06:42:12;17.70;99.90
42907;DHT22;28552;51.146;6.576;2023-07-20T06:45:13;17.90;99.90
42907;DHT22;28552;51.146;6.576;2023-07-20T06:48:13;18.00;99.90
42907;DHT22;28552;51.146;6.576;2023-07-20T06:51:14;18.10;99.90
42907;DHT22;28552;51.146;6.576;2023-07-20T06:54:14;18.10;99.90
42907;DHT22;28552;51.146;6.576;2023-07-20T06:57:15;18.10;99.90
42907;DHT22;28552;51.146;6.576;2023-07-20T07:00:15;18.10;99.90
42907;DHT22;28552;51.146;6.576;2023-07-20T07:03:16;18.40;99.90
42907;DHT22;28552;51.146;6.576;2023-07-20T07:06:17;18.50;99.90
42907;DHT22;28552;51.146;6.576;2023-07-20T07:09:18;18.50;99.90
42907;DHT22;28552;51.146;6.576;2023-07-20T07:12:19;18.40;99.90
42907;DHT22;28552;51.146;6.576;2023-07-20T07:15:19;18.30;99.90
42907;DHT22;28552;51.146;6.576;2023-07-20T07:18:20;18.30;99.90
42907;DHT22;28552;51.146;6.576;2023-07-20T07:21:20;18.30;99.90
42907;DHT22;28552;51.146;6.576;2023-07-20T07:24:21;18.10;99.90
42907;DHT22;28552;51.146;6.576;2023-07-20T07:27:21;18.10;99.90
42907;DHT22;28552;51.146;6.576;2023-07-20T07:30:22;18.20;99.90
42907;DHT22;28552;51.146;6.576;2023-07-20T07:33:23;18.40;99.90
42907;DHT22;28552;51.146;6.576;2023-07-20T07:36:23;18.70;99.90
42907;DHT22;28552;51.146;6.576;2023-07-20T07:39:25;19.00;99.90
42907;DHT22;28552;51.146;6.576;2023-07-20T07:42:29;19.20;99.90
42907;DHT22;28552;51.146;6.576;2023-07-20T07:45:29;19.20;99.90
42907;DHT22;28552;51.146;6.576;2023-07-20T07:48:30;19.30;99.90
42907;DHT22;28552;51.146;6.576;2023-07-20T07:51:30;19.30;99.90
42907;DHT22;28552;51.146;6.576;2023-07-20T07:54:31;19.30;99.90
42907;DHT22;28552;51.146;6.576;2023-07-20T07:57:31;19.30;99.90
42907;DHT22;28552;51.146;6.576;2023-07-20T08:00:32;19.40;99.90
42907;DHT22;28552;51.146;6.576;2023-07-20T08:03:33;19.50;99.90
42907;DHT22;28552;51.146;6.576;2023-07-20T08:06:33;19.50;99.90
42907;DHT22;28552;51.146;6.576;2023-07-20T08:09:34;19.60;99.90
42907;DHT22;28552;51.146;6.576;2023-07-20T08:12:35;19.60;99.90
42907;DHT22;28552;51.146;6.576;2023-07-20T08:15:35;19.50;99.90
42907;DHT22;28552;51.146;6.576;2023-07-20T08:18:37;19.40;99.90
42907;DHT22;28552;51.146;6.576;2023-07-20T08:21:38;19.20;99.90
42907;DHT22;28552;51.146;6.576;2023-07-20T08:24:40;19.30;99.90
42907;DHT22;28552;51.146;6.576;2023-07-20T08:27:42;19.40;99.90
42907;DHT22;28552;51.146;6.576;2023-07-20T08:30:47;19.70;99.90
42907;DHT22;28552;51.146;6.576;2023-07-20T08:33:48;19.80;99.90
42907;DHT22;28552;51.146;6.576;2023-07-20T08:36:49;19.90;99.90
42907;DHT22;28552;51.146;6.576;2023-07-20T08:39:49;20.00;99.90
42907;DHT22;28552;51.146;6.576;2023-07-20T08:42:50;20.20;99.90
42907;DHT22;28552;51.146;6.576;2023-07-20T08:45:53;20.30;99.90
42907;DHT22;28552;51.146;6.576;2023-07-20T08:48:55;20.40;99.90
42907;DHT22;28552;51.146;6.576;2023-07-20T08:51:57;20.10;99.90
42907;DHT22;28552;51.146;6.576;2023-07-20T08:54:58;20.10;99.90
42907;DHT22;28552;51.146;6.576;2023-07-20T08:58:00;20.30;99.90
42907;DHT22;28552;51.146;6.576;2023-07-20T09:01:01;20.50;99.90
42907;DHT22;28552;51.146;6.576;2023-07-20T09:04:03;20.70;99.90
42907;DHT22;28552;51.146;6.576;2023-07-20T09:07:04;20.80;99.90
42907;DHT22;28552;51.146;6.576;2023-07-20T09:10:05;20.70;99.90
42907;DHT22;28552;51.146;6.576;2023-07-20T09:13:06;20.50;99.90
42907;DHT22;28552;51.146;6.576;2023-07-20T09:16:06;20.50;99.90
42907;DHT22;28552;51.146;6.576;2023-07-20T09:19:07;20.30;99.90
42907;DHT22;28552;51.146;6.576;2023-07-20T09:22:09;20.20;99.90
42907;DHT22;28552;51.146;6.576;2023-07-20T09:28:13;20.00;99.90
42907;DHT22;28552;51.146;6.576;2023-07-20T09:31:16;20.00;99.90
42907;DHT22;28552;51.146;6.576;2023-07-20T09:34:19;20.10;99.90
42907;DHT22;28552;51.146;6.576;2023-07-20T09:37:21;20.40;99.90
42907;DHT22;28552;51.146;6.576;2023-07-20T09:40:22;20.70;99.90
42907;DHT22;28552;51.146;6.576;2023-07-20T09:43:23;20.80;99.90
42907;DHT22;28552;51.146;6.576;2023-07-20T09:46:24;20.70;99.90
42907;DHT22;28552;51.146;6.576;2023-07-20T09:49:24;20.50;99.90
42907;DHT22;28552;51.146;6.576;2023-07-20T09:52:25;20.20;99.90
42907;DHT22;28552;51.146;6.576;2023-07-20T09:55:26;20.10;99.90
42907;DHT22;28552;51.146;6.576;2023-07-20T09:58:27;20.20;99.90
42907;DHT22;28552;51.146;6.576;2023-07-20T10:01:29;20.40;99.90
42907;DHT22;28552;51.146;6.576;2023-07-20T10:04:34;20.60;99.90
42907;DHT22;28552;51.146;6.576;2023-07-20T10:07:36;20.60;99.90
42907;DHT22;28552;51.146;6.576;2023-07-20T10:10:41;20.50;99.90
42907;DHT22;28552;51.146;6.576;2023-07-20T10:13:44;20.50;99.90
42907;DHT22;28552;51.146;6.576;2023-07-20T10:16:50;20.50;99.90
42907;DHT22;28552;51.146;6.576;2023-07-20T10:19:56;20.70;99.90
42907;DHT22;28552;51.146;6.576;2023-07-20T10:22:57;20.90;99.90
42907;DHT22;28552;51.146;6.576;2023-07-20T10:25:58;20.90;99.90
42907;DHT22;28552;51.146;6.576;2023-07-20T10:28:59;21.00;99.90
42907;DHT22;28552;51.146;6.576;2023-07-20T10:32:00;21.00;99.70
42907;DHT22;28552;51.146;6.576;2023-07-20T10:35:01;20.90;99.30
42907;DHT22;28552;51.146;6.576;2023-07-20T10:38:02;20.80;99.30
42907;DHT22;28552;51.146;6.576;2023-07-20T10:41:03;20.70;99.00
42907;DHT22;28552;51.146;6.576;2023-07-20T10:44:05;20.70;98.90
42907;DHT22;28552;51.146;6.576;2023-07-20T10:47:11;20.90;98.80
42907;DHT22;28552;51.146;6.576;2023-07-20T10:50:12;21.10;98.30
42907;DHT22;28552;51.146;6.576;2023-07-20T10:53:14;21.20;97.90
42907;DHT22;28552;51.146;6.576;2023-07-20T10:56:20;21.20;97.40
42907;DHT22;28552;51.146;6.576;2023-07-20T11:02:24;21.20;96.90
42907;DHT22;28552;51.146;6.576;2023-07-20T11:05:33;21.20;97.40
42907;DHT22;28552;51.146;6.576;2023-07-20T11:08:40;21.30;96.90
42907;DHT22;28552;51.146;6.576;2023-07-20T11:11:43;21.50;96.30
42907;DHT22;28552;51.146;6.576;2023-07-20T11:14:54;21.60;96.80
42907;DHT22;28552;51.146;6.576;2023-07-20T11:18:11;21.80;96.20
42907;DHT22;28552;51.146;6.576;2023-07-20T11:21:12;22.00;96.10
42907;DHT22;28552;51.146;6.576;2023-07-20T11:24:12;22.10;95.80
42907;DHT22;28552;51.146;6.576;2023-07-20T11:27:13;22.10;95.60
42907;DHT22;28552;51.146;6.576;2023-07-20T11:30:16;22.00;95.30
42907;DHT22;28552;51.146;6.576;2023-07-20T11:33:16;22.10;94.90
42907;DHT22;28552;51.146;6.576;2023-07-20T11:36:17;22.10;94.60
42907;DHT22;28552;51.146;6.576;2023-07-20T11:39:20;22.00;94.60
42907;DHT22;28552;51.146;6.576;2023-07-20T11:42:22;21.90;94.70
42907;DHT22;28552;51.146;6.576;2023-07-20T11:45:22;21.80;94.90
42907;DHT22;28552;51.146;6.576;2023-07-20T11:48:23;21.60;94.90
42907;DHT22;28552;51.146;6.576;2023-07-20T11:51:24;21.50;95.00
42907;DHT22;28552;51.146;6.576;2023-07-20T11:54:25;21.40;94.90
42907;DHT22;28552;51.146;6.576;2023-07-20T11:57:25;21.30;95.10
42907;DHT22;28552;51.146;6.576;2023-07-20T12:00:27;21.40;94.90
42907;DHT22;28552;51.146;6.576;2023-07-20T12:03:28;21.50;94.90
42907;DHT22;28552;51.146;6.576;2023-07-20T12:06:30;21.60;94.70
42907;DHT22;28552;51.146;6.576;2023-07-20T12:09:31;21.70;94.80
42907;DHT22;28552;51.146;6.576;2023-07-20T12:12:33;21.90;94.70
42907;DHT22;28552;51.146;6.576;2023-07-20T12:15:34;21.90;94.20
42907;DHT22;28552;51.146;6.576;2023-07-20T12:18:35;22.00;93.60
42907;DHT22;28552;51.146;6.576;2023-07-20T12:21:37;22.00;93.60
42907;DHT22;28552;51.146;6.576;2023-07-20T12:24:38;22.10;93.80
42907;DHT22;28552;51.146;6.576;2023-07-20T12:27:39;22.20;93.50
42907;DHT22;28552;51.146;6.576;2023-07-20T12:30:41;22.40;92.80
42907;DHT22;28552;51.146;6.576;2023-07-20T12:33:42;22.50;92.40
42907;DHT22;28552;51.146;6.576;2023-07-20T12:36:42;22.50;92.30
42907;DHT22;28552;51.146;6.576;2023-07-20T12:39:43;22.40;92.10
42907;DHT22;28552;51.146;6.576;2023-07-20T12:42:47;22.40;92.00
42907;DHT22;28552;51.146;6.576;2023-07-20T12:45:48;22.60;91.50
42907;DHT22;28552;51.146;6.576;2023-07-20T12:48:49;22.80;91.60
42907;DHT22;28552;51.146;6.576;2023-07-20T12:51:49;23.10;90.90
42907;DHT22;28552;51.146;6.576;2023-07-20T12:54:50;23.10;90.00
42907;DHT22;28552;51.146;6.576;2023-07-20T12:57:50;23.10;90.50
42907;DHT22;28552;51.146;6.576;2023-07-20T13:00:51;23.20;90.10
42907;DHT22;28552;51.146;6.576;2023-07-20T13:03:52;23.30;90.00
42907;DHT22;28552;51.146;6.576;2023-07-20T13:06:53;23.40;88.90
42907;DHT22;28552;51.146;6.576;2023-07-20T13:09:54;23.50;87.90
42907;DHT22;28552;51.146;6.576;2023-07-20T13:12:55;23.60;88.30
42907;DHT22;28552;51.146;6.576;2023-07-20T13:15:56;23.80;86.60
42907;DHT22;28552;51.146;6.576;2023-07-20T13:18:56;23.80;86.20
42907;DHT22;28552;51.146;6.576;2023-07-20T13:21:57;23.90;84.90
42907;DHT22;28552;51.146;6.576;2023-07-20T13:24:58;23.80;84.60
42907;DHT22;28552;51.146;6.576;2023-07-20T13:27:59;23.60;83.90
42907;DHT22;28552;51.146;6.576;2023-07-20T13:30:59;23.30;84.60
42907;DHT22;28552;51.146;6.576;2023-07-20T13:34:00;23.00;85.40
42907;DHT22;28552;51.146;6.576;2023-07-20T13:37:01;22.70;86.50
42907;DHT22;28552;51.146;6.576;2023-07-20T13:40:02;22.40;86.40
42907;DHT22;28552;51.146;6.576;2023-07-20T13:43:05;22.20;87.00
42907;DHT22;28552;51.146;6.576;2023-07-20T13:46:06;22.10;87.90
42907;DHT22;28552;51.146;6.576;2023-07-20T13:49:06;21.90;88.40
42907;DHT22;28552;51.146;6.576;2023-07-20T13:52:07;21.80;88.60
42907;DHT22;28552;51.146;6.576;2023-07-20T13:55:09;21.70;88.90
42907;DHT22;28552;51.146;6.576;2023-07-20T13:58:09;21.70;89.40
42907;DHT22;28552;51.146;6.576;2023-07-20T14:01:11;21.80;89.80
42907;DHT22;28552;51.146;6.576;2023-07-20T14:04:12;21.90;89.70
42907;DHT22;28552;51.146;6.576;2023-07-20T14:07:13;22.00;90.00
42907;DHT22;28552;51.146;6.576;2023-07-20T14:10:13;22.10;89.90
42907;DHT22;28552;51.146;6.576;2023-07-20T14:13:14;22.30;90.10
42907;DHT22;28552;51.146;6.576;2023-07-20T14:16:15;22.30;89.70
42907;DHT22;28552;51.146;6.576;2023-07-20T14:19:16;22.40;89.60
42907;DHT22;28552;51.146;6.576;2023-07-20T14:22:16;22.40;89.20
42907;DHT22;28552;51.146;6.576;2023-07-20T14:25:17;22.40;88.90
42907;DHT22;28552;51.146;6.576;2023-07-20T14:28:17;22.40;88.20
42907;DHT22;28552;51.146;6.576;2023-07-20T14:31:18;22.60;88.00
42907;DHT22;28552;51.146;6.576;2023-07-20T14:34:20;22.70;87.50
42907;DHT22;28552;51.146;6.576;2023-07-20T14:37:20;22.80;87.70
42907;DHT22;28552;51.146;6.576;2023-07-20T14:40:21;22.90;86.80
42907;DHT22;28552;51.146;6.576;2023-07-20T14:43:21;23.00;86.50
42907;DHT22;28552;51.146;6.576;2023-07-20T14:46:22;23.00;85.60
42907;DHT22;28552;51.146;6.576;2023-07-20T14:49:23;23.00;85.60
42907;DHT22;28552;51.146;6.576;2023-07-20T14:52:23;23.00;85.60
42907;DHT22;28552;51.146;6.576;2023-07-20T14:55:24;23.00;85.20
42907;DHT22;28552;51.146;6.576;2023-07-20T14:58:25;23.00;84.30
42907;DHT22;28552;51.146;6.576;2023-07-20T15:01:26;23.00;84.10
42907;DHT22;28552;51.146;6.576;2023-07-20T15:04:26;23.00;84.00
42907;DHT22;28552;51.146;6.576;2023-07-20T15:07:27;23.00;85.20
42907;DHT22;28552;51.146;6.576;2023-07-20T15:10:28;22.80;84.90
42907;DHT22;28552;51.146;6.576;2023-07-20T15:13:29;22.70;85.70
42907;DHT22;28552;51.146;6.576;2023-07-20T15:16:30;22.60;86.00
42907;DHT22;28552;51.146;6.576;2023-07-20T15:19:30;22.70;86.30
42907;DHT22;28552;51.146;6.576;2023-07-20T15:22:32;22.90;86.80
42907;DHT22;28552;51.146;6.576;2023-07-20T15:25:32;23.20;86.00
42907;DHT22;28552;51.146;6.576;2023-07-20T15:28:33;23.30;85.70
42907;DHT22;28552;51.146;6.576;2023-07-20T15:31:33;23.50;84.90
42907;DHT22;28552;51.146;6.576;2023-07-20T15:34:36;23.50;84.20
42907;DHT22;28552;51.146;6.576;2023-07-20T15:37:37;23.60;83.80
42907;DHT22;28552;51.146;6.576;2023-07-20T15:40:43;23.60;82.60
42907;DHT22;28552;51.146;6.576;2023-07-20T15:43:44;23.50;82.90
42907;DHT22;28552;51.146;6.576;2023-07-20T15:46:46;23.50;82.70
42907;DHT22;28552;51.146;6.576;2023-07-20T15:49:47;23.50;82.70
42907;DHT22;28552;51.146;6.576;2023-07-20T15:52:48;23.50;82.50
42907;DHT22;28552;51.146;6.576;2023-07-20T15:55:53;23.40;81.90
42907;DHT22;28552;51.146;6.576;2023-07-20T15:58:55;23.50;82.10
42907;DHT22;28552;51.146;6.576;2023-07-20T16:01:55;23.50;81.60
42907;DHT22;28552;51.146;6.576;2023-07-20T16:04:56;23.50;82.40
42907;DHT22;28552;51.146;6.576;2023-07-20T16:07:56;23.40;82.60
42907;DHT22;28552;51.146;6.576;2023-07-20T16:10:57;23.40;83.00
42907;DHT22;28552;51.146;6.576;2023-07-20T16:13:58;23.40;83.10
42907;DHT22;28552;51.146;6.576;2023-07-20T16:16:58;23.30;83.30
42907;DHT22;28552;51.146;6.576;2023-07-20T16:19:59;23.40;84.00
42907;DHT22;28552;51.146;6.576;2023-07-20T16:22:59;23.50;83.50
42907;DHT22;28552;51.146;6.576;2023-07-20T16:26:00;23.40;82.90
42907;DHT22;28552;51.146;6.576;2023-07-20T16:29:01;23.40;82.90
42907;DHT22;28552;51.146;6.576;2023-07-20T16:32:02;23.40;82.50
42907;DHT22;28552;51.146;6.576;2023-07-20T16:35:03;23.30;81.80
42907;DHT22;28552;51.146;6.576;2023-07-20T16:38:04;23.40;82.20
42907;DHT22;28552;51.146;6.576;2023-07-20T16:41:06;23.50;82.20
42907;DHT22;28552;51.146;6.576;2023-07-20T16:44:07;23.60;82.00
42907;DHT22;28552;51.146;6.576;2023-07-20T16:47:08;23.80;81.40
42907;DHT22;28552;51.146;6.576;2023-07-20T16:50:11;23.90;80.90
42907;DHT22;28552;51.146;6.576;2023-07-20T16:53:11;24.00;81.00
42907;DHT22;28552;51.146;6.576;2023-07-20T16:56:12;23.90;81.00
42907;DHT22;28552;51.146;6.576;2023-07-20T16:59:12;23.70;81.10
42907;DHT22;28552;51.146;6.576;2023-07-20T17:02:13;23.50;81.50
42907;DHT22;28552;51.146;6.576;2023-07-20T17:05:14;23.40;81.40
42907;DHT22;28552;51.146;6.576;2023-07-20T17:08:15;23.20;81.60
42907;DHT22;28552;51.146;6.576;2023-07-20T17:11:16;23.00;81.80
42907;DHT22;28552;51.146;6.576;2023-07-20T17:14:16;22.90;82.20
42907;DHT22;28552;51.146;6.576;2023-07-20T17:17:17;22.80;82.70
42907;DHT22;28552;51.146;6.576;2023-07-20T17:20:19;22.60;82.70
42907;DHT22;28552;51.146;6.576;2023-07-20T17:23:20;22.50;82.80
42907;DHT22;28552;51.146;6.576;2023-07-20T17:26:21;22.30;82.70
42907;DHT22;28552;51.146;6.576;2023-07-20T17:29:21;22.20;82.90
42907;DHT22;28552;51.146;6.576;2023-07-20T17:32:22;22.20;83.00
42907;DHT22;28552;51.146;6.576;2023-07-20T17:35:23;22.20;82.90
42907;DHT22;28552;51.146;6.576;2023-07-20T17:38:27;22.40;82.20
42907;DHT22;28552;51.146;6.576;2023-07-20T17:41:27;22.60;82.00
42907;DHT22;28552;51.146;6.576;2023-07-20T17:44:28;22.80;81.90
42907;DHT22;28552;51.146;6.576;2023-07-20T17:47:28;22.80;81.80
42907;DHT22;28552;51.146;6.576;2023-07-20T17:50:29;22.80;81.60
42907;DHT22;28552;51.146;6.576;2023-07-20T17:53:30;22.60;81.80
42907;DHT22;28552;51.146;6.576;2023-07-20T17:56:30;22.40;82.20
42907;DHT22;28552;51.146;6.576;2023-07-20T17:59:31;22.20;82.80
42907;DHT22;28552;51.146;6.576;2023-07-20T18:02:32;22.00;83.50
42907;DHT22;28552;51.146;6.576;2023-07-20T18:05:32;21.80;83.90
42907;DHT22;28552;51.146;6.576;2023-07-20T18:08:33;21.70;84.40
42907;DHT22;28552;51.146;6.576;2023-07-20T18:11:34;21.60;84.70
42907;DHT22;28552;51.146;6.576;2023-07-20T18:14:35;21.50;85.50
42907;DHT22;28552;51.146;6.576;2023-07-20T18:17:36;21.40;86.10
42907;DHT22;28552;51.146;6.576;2023-07-20T18:20:37;21.30;86.80
42907;DHT22;28552;51.146;6.576;2023-07-20T18:23:37;21.20;87.40
42907;DHT22;28552;51.146;6.576;2023-07-20T18:26:38;21.10;87.90
42907;DHT22;28552;51.146;6.576;2023-07-20T18:29:39;21.00;88.20
42907;DHT22;28552;51.146;6.576;2023-07-20T18:32:39;21.00;88.20
42907;DHT22;28552;51.146;6.576;2023-07-20T18:35:40;21.00;87.90
42907;DHT22;28552;51.146;6.576;2023-07-20T18:38:41;21.00;88.00
42907;DHT22;28552;51.146;6.576;2023-07-20T18:41:41;21.00;88.10
42907;DHT22;28552;51.146;6.576;2023-07-20T18:44:42;20.90;88.20
42907;DHT22;28552;51.146;6.576;2023-07-20T18:47:44;21.00;88.60
42907;DHT22;28552;51.146;6.576;2023-07-20T18:50:44;20.90;88.70
42907;DHT22;28552;51.146;6.576;2023-07-20T18:53:45;20.80;88.90
42907;DHT22;28552;51.146;6.576;2023-07-20T18:56:46;20.80;89.60
42907;DHT22;28552;51.146;6.576;2023-07-20T18:59:46;20.70;89.90
42907;DHT22;28552;51.146;6.576;2023-07-20T19:02:47;20.70;90.20
42907;DHT22;28552;51.146;6.576;2023-07-20T19:05:49;20.60;90.30
42907;DHT22;28552;51.146;6.576;2023-07-20T19:08:50;20.60;90.70
42907;DHT22;28552;51.146;6.576;2023-07-20T19:11:51;20.50;91.00
42907;DHT22;28552;51.146;6.576;2023-07-20T19:14:51;20.40;91.30